TimeEDT,TemperatureF,Dew PointF,Humidity,Sea Level PressureIn,VisibilityMPH,Wind Direction,Wind SpeedMPH,Gust SpeedMPH,PrecipitationIn,Events,Conditions,WindDirDegrees,DateUTC
12:53 AM,63.0,59.0,87,30.12,10.0,Calm,Calm,-,N/A,,Clear,0,2013-08-19 04:53:00
1:53 AM,63.0,59.0,87,30.11,10.0,Calm,Calm,-,N/A,,Clear,0,2013-08-19 05:53:00
2:53 AM,63.0,60.1,90,30.10,9.0,Calm,Calm,-,N/A,,Clear,0,2013-08-19 06:53:00
3:53 AM,60.1,57.9,93,30.10,5.0,South,3.5,-,N/A,,Clear,170,2013-08-19 07:53:00
4:53 AM,61.0,59.0,93,30.10,6.0,Calm,Calm,-,0.01,,Clear,0,2013-08-19 08:53:00
5:53 AM,62.1,60.1,93,30.10,5.0,Calm,Calm,-,N/A,,Clear,0,2013-08-19 09:53:00
6:53 AM,61.0,60.1,97,30.10,4.0,South,3.5,-,0.00,,Clear,190,2013-08-19 10:53:00
7:00 AM,60.8,60.8,100,30.11,5.0,SW,3.5,-,N/A,Fog,Shallow Fog,220,2013-08-19 11:00:00
7:53 AM,64.9,62.1,90,30.11,7.0,SW,3.5,-,N/A,,Partly Cloudy,230,2013-08-19 11:53:00
8:53 AM,68.0,61.0,78,30.10,7.0,WSW,3.5,-,N/A,,Clear,250,2013-08-19 12:53:00
9:53 AM,72.0,60.1,66,30.10,10.0,West,6.9,-,N/A,,Partly Cloudy,260,2013-08-19 13:53:00
10:53 AM,75.0,59.0,57,30.09,10.0,West,6.9,-,N/A,,Scattered Clouds,270,2013-08-19 14:53:00
11:53 AM,77.0,57.9,52,30.08,10.0,NNW,9.2,-,N/A,,Partly Cloudy,340,2013-08-19 15:53:00
12:53 PM,78.1,57.9,50,30.07,10.0,North,10.4,-,N/A,,Partly Cloudy,350,2013-08-19 16:53:00
1:53 PM,75.9,55.9,50,30.06,10.0,NW,4.6,-,N/A,,Scattered Clouds,320,2013-08-19 17:53:00
2:53 PM,78.1,55.9,46,30.06,10.0,NNW,8.1,-,N/A,,Scattered Clouds,330,2013-08-19 18:53:00
3:53 PM,77.0,57.9,52,30.05,10.0,SW,4.6,-,N/A,,Scattered Clouds,220,2013-08-19 19:53:00
4:53 PM,78.1,59.0,52,30.04,10.0,SSW,10.4,-,N/A,,Partly Cloudy,210,2013-08-19 20:53:00
5:53 PM,77.0,59.0,54,30.04,10.0,SSW,9.2,-,N/A,,Partly Cloudy,210,2013-08-19 21:53:00
6:53 PM,75.0,59.0,57,30.04,10.0,SW,10.4,-,N/A,,Clear,230,2013-08-19 22:53:00
7:53 PM,72.0,61.0,68,30.04,10.0,SW,8.1,-,N/A,,Clear,220,2013-08-19 23:53:00
8:53 PM,70.0,61.0,73,30.04,10.0,SW,10.4,-,N/A,,Clear,220,2013-08-20 00:53:00
9:53 PM,68.0,62.1,81,30.06,10.0,SW,8.1,-,N/A,,Clear,230,2013-08-20 01:53:00
10:53 PM,66.9,62.1,84,30.05,10.0,SW,5.8,-,N/A,,Clear,220,2013-08-20 02:53:00
11:53 PM,66.0,62.1,87,30.06,10.0,SW,8.1,-,N/A,,Clear,220,2013-08-20 03:53:00